sensor_id;sensor_type;location;lat;lon;timestamp;P1;P2;P0
64114;PMS5003;62188;35.640;139.748;2023-11-19T00:02:19;3;3;
64114;PMS5003;62188;35.640;139.748;2023-11-19T00:04:44;3;2;
64114;PMS5003;62188;35.640;139.748;2023-11-19T00:07:09;4;3;
64114;PMS5003;62188;35.640;139.748;2023-11-19T00:09:35;3;2;
64114;PMS5003;62188;35.640;139.748;2023-11-19T00:12:00;5;3;
64114;PMS5003;62188;35.640;139.748;2023-11-19T00:14:26;4;3;
64114;PMS5003;62188;35.640;139.748;2023-11-19T00:16:51;3;3;
64114;PMS5003;62188;35.640;139.748;2023-11-19T00:19:17;4;3;
64114;PMS5003;62188;35.640;139.748;2023-11-19T00:21:42;4;4;
64114;PMS5003;62188;35.640;139.748;2023-11-19T00:24:08;3;3;
64114;PMS5003;62188;35.640;139.748;2023-11-19T00:26:33;1;1;
64114;PMS5003;62188;35.640;139.748;2023-11-19T00:28:59;2;2;
64114;PMS5003;62188;35.640;139.748;2023-11-19T00:31:24;3;3;
64114;PMS5003;62188;35.640;139.748;2023-11-19T00:33:50;2;2;
64114;PMS5003;62188;35.640;139.748;2023-11-19T00:36:15;3;2;
64114;PMS5003;62188;35.640;139.748;2023-11-19T00:38:40;4;4;
64114;PMS5003;62188;35.640;139.748;2023-11-19T00:41:06;2;2;
64114;PMS5003;62188;35.640;139.748;2023-11-19T00:43:31;3;3;
64114;PMS5003;62188;35.640;139.748;2023-11-19T00:45:57;4;4;
64114;PMS5003;62188;35.640;139.748;2023-11-19T00:48:22;5;5;
64114;PMS5003;62188;35.640;139.748;2023-11-19T00:50:48;7;6;
64114;PMS5003;62188;35.640;139.748;2023-11-19T00:53:13;4;4;
64114;PMS5003;62188;35.640;139.748;2023-11-19T00:55:38;5;5;
64114;PMS5003;62188;35.640;139.748;2023-11-19T00:58:03;2;2;
64114;PMS5003;62188;35.640;139.748;2023-11-19T01:00:29;3;3;
64114;PMS5003;62188;35.640;139.748;2023-11-19T01:02:55;3;3;
64114;PMS5003;62188;35.640;139.748;2023-11-19T01:05:20;3;2;
64114;PMS5003;62188;35.640;139.748;2023-11-19T01:07:45;2;2;
64114;PMS5003;62188;35.640;139.748;2023-11-19T01:10:11;3;3;
64114;PMS5003;62188;35.640;139.748;2023-11-19T01:12:36;2;2;
64114;PMS5003;62188;35.640;139.748;2023-11-19T01:15:02;2;2;
64114;PMS5003;62188;35.640;139.748;2023-11-19T01:17:27;2;2;
64114;PMS5003;62188;35.640;139.748;2023-11-19T01:19:52;2;2;
64114;PMS5003;62188;35.640;139.748;2023-11-19T01:22:17;1;1;
64114;PMS5003;62188;35.640;139.748;2023-11-19T01:24:43;1;1;
64114;PMS5003;62188;35.640;139.748;2023-11-19T01:27:09;3;3;
64114;PMS5003;62188;35.640;139.748;2023-11-19T01:29:34;3;3;
64114;PMS5003;62188;35.640;139.748;2023-11-19T01:31:59;2;2;
64114;PMS5003;62188;35.640;139.748;2023-11-19T01:34:24;2;1;
64114;PMS5003;62188;35.640;139.748;2023-11-19T01:36:50;1;1;
64114;PMS5003;62188;35.640;139.748;2023-11-19T01:39:15;3;3;
64114;PMS5003;62188;35.640;139.748;2023-11-19T01:41:41;2;2;
64114;PMS5003;62188;35.640;139.748;2023-11-19T01:44:06;2;2;
64114;PMS5003;62188;35.640;139.748;2023-11-19T01:46:31;2;2;
64114;PMS5003;62188;35.640;139.748;2023-11-19T01:48:56;3;3;
64114;PMS5003;62188;35.640;139.748;2023-11-19T01:51:22;3;3;
64114;PMS5003;62188;35.640;139.748;2023-11-19T01:53:47;2;1;
64114;PMS5003;62188;35.640;139.748;2023-11-19T01:56:13;1;1;
64114;PMS5003;62188;35.640;139.748;2023-11-19T01:58:39;1;1;
64114;PMS5003;62188;35.640;139.748;2023-11-19T02:01:03;2;2;
64114;PMS5003;62188;35.640;139.748;2023-11-19T02:03:28;2;2;
64114;PMS5003;62188;35.640;139.748;2023-11-19T02:05:54;2;2;
64114;PMS5003;62188;35.640;139.748;2023-11-19T02:08:19;2;2;
64114;PMS5003;62188;35.640;139.748;2023-11-19T02:10:45;3;3;
64114;PMS5003;62188;35.640;139.748;2023-11-19T02:13:10;3;3;
64114;PMS5003;62188;35.640;139.748;2023-11-19T02:15:35;4;3;
64114;PMS5003;62188;35.640;139.748;2023-11-19T02:20:26;2;2;
64114;PMS5003;62188;35.640;139.748;2023-11-19T02:22:51;4;4;
64114;PMS5003;62188;35.640;139.748;2023-11-19T02:25:19;3;3;
64114;PMS5003;62188;35.640;139.748;2023-11-19T02:27:45;4;4;
64114;PMS5003;62188;35.640;139.748;2023-11-19T02:30:11;4;3;
64114;PMS5003;62188;35.640;139.748;2023-11-19T02:32:32;4;4;
64114;PMS5003;62188;35.640;139.748;2023-11-19T02:34:58;3;3;
64114;PMS5003;62188;35.640;139.748;2023-11-19T02:37:24;2;2;
64114;PMS5003;62188;35.640;139.748;2023-11-19T02:39:49;3;3;
64114;PMS5003;62188;35.640;139.748;2023-11-19T02:42:14;3;3;
64114;PMS5003;62188;35.640;139.748;2023-11-19T02:44:40;4;4;
64114;PMS5003;62188;35.640;139.748;2023-11-19T02:47:05;3;3;
64114;PMS5003;62188;35.640;139.748;2023-11-19T02:49:30;7;7;
64114;PMS5003;62188;35.640;139.748;2023-11-19T02:51:55;6;5;
64114;PMS5003;62188;35.640;139.748;2023-11-19T02:54:21;4;3;
64114;PMS5003;62188;35.640;139.748;2023-11-19T02:56:46;9;9;
64114;PMS5003;62188;35.640;139.748;2023-11-19T02:59:12;9;8;
64114;PMS5003;62188;35.640;139.748;2023-11-19T03:01:37;12;12;
64114;PMS5003;62188;35.640;139.748;2023-11-19T03:04:03;13;12;
64114;PMS5003;62188;35.640;139.748;2023-11-19T03:06:28;14;13;
64114;PMS5003;62188;35.640;139.748;2023-11-19T03:08:54;15;14;
64114;PMS5003;62188;35.640;139.748;2023-11-19T03:11:18;18;18;
64114;PMS5003;62188;35.640;139.748;2023-11-19T03:13:43;16;16;
64114;PMS5003;62188;35.640;139.748;2023-11-19T03:16:09;15;15;
64114;PMS5003;62188;35.640;139.748;2023-11-19T03:18:34;19;19;
64114;PMS5003;62188;35.640;139.748;2023-11-19T03:20:59;15;15;
64114;PMS5003;62188;35.640;139.748;2023-11-19T03:23:25;14;14;
64114;PMS5003;62188;35.640;139.748;2023-11-19T03:25:50;16;16;
64114;PMS5003;62188;35.640;139.748;2023-11-19T03:28:15;13;13;
64114;PMS5003;62188;35.640;139.748;2023-11-19T03:30:41;13;13;
64114;PMS5003;62188;35.640;139.748;2023-11-19T03:33:06;14;14;
64114;PMS5003;62188;35.640;139.748;2023-11-19T03:35:32;13;13;
64114;PMS5003;62188;35.640;139.748;2023-11-19T03:37:57;12;12;
64114;PMS5003;62188;35.640;139.748;2023-11-19T03:40:22;11;11;
64114;PMS5003;62188;35.640;139.748;2023-11-19T03:42:48;14;13;
64114;PMS5003;62188;35.640;139.748;2023-11-19T03:45:13;13;13;
64114;PMS5003;62188;35.640;139.748;2023-11-19T03:47:39;10;10;
64114;PMS5003;62188;35.640;139.748;2023-11-19T03:50:05;13;13;
64114;PMS5003;62188;35.640;139.748;2023-11-19T03:52:30;13;13;
64114;PMS5003;62188;35.640;139.748;2023-11-19T03:54:55;14;12;
64114;PMS5003;62188;35.640;139.748;2023-11-19T03:57:21;11;11;
64114;PMS5003;62188;35.640;139.748;2023-11-19T03:59:46;14;12;
64114;PMS5003;62188;35.640;139.748;2023-11-19T04:02:11;12;12;
64114;PMS5003;62188;35.640;139.748;2023-11-19T04:04:37;12;11;
64114;PMS5003;62188;35.640;139.748;2023-11-19T04:07:03;14;12;
64114;PMS5003;62188;35.640;139.748;2023-11-19T04:09:28;16;14;
64114;PMS5003;62188;35.640;139.748;2023-11-19T04:11:53;12;12;
64114;PMS5003;62188;35.640;139.748;2023-11-19T04:14:18;11;11;
64114;PMS5003;62188;35.640;139.748;2023-11-19T04:16:43;13;12;
64114;PMS5003;62188;35.640;139.748;2023-11-19T04:19:09;13;12;
64114;PMS5003;62188;35.640;139.748;2023-11-19T04:21:34;14;14;
64114;PMS5003;62188;35.640;139.748;2023-11-19T04:23:59;10;10;
64114;PMS5003;62188;35.640;139.748;2023-11-19T04:26:25;8;8;
64114;PMS5003;62188;35.640;139.748;2023-11-19T04:28:50;11;11;
64114;PMS5003;62188;35.640;139.748;2023-11-19T04:31:15;12;10;
64114;PMS5003;62188;35.640;139.748;2023-11-19T04:33:41;10;9;
64114;PMS5003;62188;35.640;139.748;2023-11-19T04:36:06;8;7;
64114;PMS5003;62188;35.640;139.748;2023-11-19T04:38:31;11;11;
64114;PMS5003;62188;35.640;139.748;2023-11-19T04:40:56;3;3;
64114;PMS5003;62188;35.640;139.748;2023-11-19T04:43:22;5;5;
64114;PMS5003;62188;35.640;139.748;2023-11-19T04:45:48;5;5;
64114;PMS5003;62188;35.640;139.748;2023-11-19T04:48:13;5;5;
64114;PMS5003;62188;35.640;139.748;2023-11-19T04:50:38;10;9;
64114;PMS5003;62188;35.640;139.748;2023-11-19T04:53:04;7;7;
64114;PMS5003;62188;35.640;139.748;2023-11-19T04:55:29;7;6;
64114;PMS5003;62188;35.640;139.748;2023-11-19T04:57:54;7;6;
64114;PMS5003;62188;35.640;139.748;2023-11-19T05:00:20;6;6;
64114;PMS5003;62188;35.640;139.748;2023-11-19T05:02:45;6;6;
64114;PMS5003;62188;35.640;139.748;2023-11-19T05:05:11;6;5;
64114;PMS5003;62188;35.640;139.748;2023-11-19T05:07:36;6;5;
64114;PMS5003;62188;35.640;139.748;2023-11-19T05:10:01;6;5;
64114;PMS5003;62188;35.640;139.748;2023-11-19T05:12:27;6;6;
64114;PMS5003;62188;35.640;139.748;2023-11-19T05:14:52;3;3;
64114;PMS5003;62188;35.640;139.748;2023-11-19T05:17:18;2;2;
64114;PMS5003;62188;35.640;139.748;2023-11-19T05:19:43;2;2;
64114;PMS5003;62188;35.640;139.748;2023-11-19T05:22:09;0;0;
64114;PMS5003;62188;35.640;139.748;2023-11-19T05:24:35;4;4;
64114;PMS5003;62188;35.640;139.748;2023-11-19T05:27:00;2;2;
64114;PMS5003;62188;35.640;139.748;2023-11-19T05:29:25;2;2;
64114;PMS5003;62188;35.640;139.748;2023-11-19T05:31:51;2;2;
64114;PMS5003;62188;35.640;139.748;2023-11-19T05:34:16;2;2;
64114;PMS5003;62188;35.640;139.748;2023-11-19T05:36:42;2;2;
64114;PMS5003;62188;35.640;139.748;2023-11-19T05:39:07;1;1;
64114;PMS5003;62188;35.640;139.748;2023-11-19T05:41:32;2;2;
64114;PMS5003;62188;35.640;139.748;2023-11-19T05:43:58;0;0;
64114;PMS5003;62188;35.640;139.748;2023-11-19T05:46:23;1;1;
64114;PMS5003;62188;35.640;139.748;2023-11-19T05:48:49;1;1;
64114;PMS5003;62188;35.640;139.748;2023-11-19T05:51:14;0;0;
64114;PMS5003;62188;35.640;139.748;2023-11-19T05:53:40;1;1;
64114;PMS5003;62188;35.640;139.748;2023-11-19T05:56:06;1;1;
64114;PMS5003;62188;35.640;139.748;2023-11-19T05:58:31;1;1;
64114;PMS5003;62188;35.640;139.748;2023-11-19T06:00:56;1;1;
64114;PMS5003;62188;35.640;139.748;2023-11-19T06:03:22;0;0;
64114;PMS5003;62188;35.640;139.748;2023-11-19T06:05:47;1;1;
64114;PMS5003;62188;35.640;139.748;2023-11-19T06:08:12;0;0;
64114;PMS5003;62188;35.640;139.748;2023-11-19T06:10:38;0;0;
64114;PMS5003;62188;35.640;139.748;2023-11-19T06:13:03;0;0;
64114;PMS5003;62188;35.640;139.748;2023-11-19T06:15:29;0;0;
64114;PMS5003;62188;35.640;139.748;2023-11-19T06:17:54;0;0;
64114;PMS5003;62188;35.640;139.748;2023-11-19T06:20:20;0;0;
64114;PMS5003;62188;35.640;139.748;2023-11-19T06:22:46;1;1;
64114;PMS5003;62188;35.640;139.748;2023-11-19T06:25:11;0;0;
64114;PMS5003;62188;35.640;139.748;2023-11-19T06:27:36;0;0;
64114;PMS5003;62188;35.640;139.748;2023-11-19T06:30:02;0;0;
64114;PMS5003;62188;35.640;139.748;2023-11-19T06:32:27;0;0;
64114;PMS5003;62188;35.640;139.748;2023-11-19T06:34:52;0;0;
64114;PMS5003;62188;35.640;139.748;2023-11-19T06:37:18;0;0;
64114;PMS5003;62188;35.640;139.748;2023-11-19T06:39:44;0;0;
64114;PMS5003;62188;35.640;139.748;2023-11-19T06:42:09;0;0;
64114;PMS5003;62188;35.640;139.748;2023-11-19T06:44:34;0;0;
64114;PMS5003;62188;35.640;139.748;2023-11-19T06:47:00;0;0;
64114;PMS5003;62188;35.640;139.748;2023-11-19T06:49:25;0;0;
64114;PMS5003;62188;35.640;139.748;2023-11-19T06:51:51;0;0;
64114;PMS5003;62188;35.640;139.748;2023-11-19T06:54:16;0;0;
64114;PMS5003;62188;35.640;139.748;2023-11-19T06:56:42;1;1;
64114;PMS5003;62188;35.640;139.748;2023-11-19T06:59:07;1;1;
64114;PMS5003;62188;35.640;139.748;2023-11-19T07:01:34;1;1;
64114;PMS5003;62188;35.640;139.748;2023-11-19T07:03:58;1;1;
64114;PMS5003;62188;35.640;139.748;2023-11-19T07:06:23;1;1;
64114;PMS5003;62188;35.640;139.748;2023-11-19T07:08:49;1;1;
64114;PMS5003;62188;35.640;139.748;2023-11-19T07:11:14;2;2;
64114;PMS5003;62188;35.640;139.748;2023-11-19T07:13:40;1;1;
64114;PMS5003;62188;35.640;139.748;2023-11-19T07:16:06;2;2;
64114;PMS5003;62188;35.640;139.748;2023-11-19T07:18:31;2;2;
64114;PMS5003;62188;35.640;139.748;2023-11-19T07:20:56;2;2;
64114;PMS5003;62188;35.640;139.748;2023-11-19T07:23:21;2;2;
64114;PMS5003;62188;35.640;139.748;2023-11-19T07:25:47;2;2;
64114;PMS5003;62188;35.640;139.748;2023-11-19T07:28:13;1;1;
64114;PMS5003;62188;35.640;139.748;2023-11-19T07:30:38;2;2;
64114;PMS5003;62188;35.640;139.748;2023-11-19T07:33:04;1;1;
64114;PMS5003;62188;35.640;139.748;2023-11-19T07:35:29;2;2;
64114;PMS5003;62188;35.640;139.748;2023-11-19T07:37:55;1;1;
64114;PMS5003;62188;35.640;139.748;2023-11-19T07:40:20;2;2;
64114;PMS5003;62188;35.640;139.748;2023-11-19T07:42:45;2;2;
64114;PMS5003;62188;35.640;139.748;2023-11-19T07:45:11;2;2;
64114;PMS5003;62188;35.640;139.748;2023-11-19T07:47:36;3;3;
64114;PMS5003;62188;35.640;139.748;2023-11-19T07:50:02;3;2;
64114;PMS5003;62188;35.640;139.748;2023-11-19T07:52:27;2;2;
64114;PMS5003;62188;35.640;139.748;2023-11-19T07:54:53;2;2;
64114;PMS5003;62188;35.640;139.748;2023-11-19T07:57:18;1;1;
64114;PMS5003;62188;35.640;139.748;2023-11-19T07:59:44;4;4;
64114;PMS5003;62188;35.640;139.748;2023-11-19T08:02:09;2;2;
64114;PMS5003;62188;35.640;139.748;2023-11-19T08:04:35;2;2;
64114;PMS5003;62188;35.640;139.748;2023-11-19T08:07:00;2;2;
64114;PMS5003;62188;35.640;139.748;2023-11-19T08:09:26;3;2;
64114;PMS5003;62188;35.640;139.748;2023-11-19T08:11:51;4;3;
64114;PMS5003;62188;35.640;139.748;2023-11-19T08:14:17;4;4;
64114;PMS5003;62188;35.640;139.748;2023-11-19T08:16:42;4;4;
64114;PMS5003;62188;35.640;139.748;2023-11-19T08:19:07;4;3;
64114;PMS5003;62188;35.640;139.748;2023-11-19T08:21:32;6;6;
64114;PMS5003;62188;35.640;139.748;2023-11-19T08:23:58;6;6;
64114;PMS5003;62188;35.640;139.748;2023-11-19T08:26:24;5;5;
64114;PMS5003;62188;35.640;139.748;2023-11-19T08:28:49;10;10;
64114;PMS5003;62188;35.640;139.748;2023-11-19T08:31:15;5;5;
64114;PMS5003;62188;35.640;139.748;2023-11-19T08:33:40;6;5;
64114;PMS5003;62188;35.640;139.748;2023-11-19T08:36:06;6;5;
64114;PMS5003;62188;35.640;139.748;2023-11-19T08:38:31;4;4;
64114;PMS5003;62188;35.640;139.748;2023-11-19T08:40:57;4;4;
64114;PMS5003;62188;35.640;139.748;2023-11-19T08:43:22;3;3;
64114;PMS5003;62188;35.640;139.748;2023-11-19T08:45:48;4;4;
64114;PMS5003;62188;35.640;139.748;2023-11-19T08:48:13;5;5;
64114;PMS5003;62188;35.640;139.748;2023-11-19T08:50:39;4;4;
64114;PMS5003;62188;35.640;139.748;2023-11-19T08:53:04;6;6;
64114;PMS5003;62188;35.640;139.748;2023-11-19T08:55:29;7;6;
64114;PMS5003;62188;35.640;139.748;2023-11-19T08:57:55;3;3;
64114;PMS5003;62188;35.640;139.748;2023-11-19T09:00:20;2;2;
64114;PMS5003;62188;35.640;139.748;2023-11-19T09:02:46;6;4;
64114;PMS5003;62188;35.640;139.748;2023-11-19T09:05:11;6;6;
64114;PMS5003;62188;35.640;139.748;2023-11-19T09:07:37;7;6;
64114;PMS5003;62188;35.640;139.748;2023-11-19T09:10:03;7;6;
64114;PMS5003;62188;35.640;139.748;2023-11-19T09:12:28;8;7;
64114;PMS5003;62188;35.640;139.748;2023-11-19T09:14:53;6;6;
64114;PMS5003;62188;35.640;139.748;2023-11-19T09:17:19;8;7;
64114;PMS5003;62188;35.640;139.748;2023-11-19T09:19:44;9;7;
64114;PMS5003;62188;35.640;139.748;2023-11-19T09:22:10;8;7;
64114;PMS5003;62188;35.640;139.748;2023-11-19T09:24:35;8;8;
64114;PMS5003;62188;35.640;139.748;2023-11-19T09:27:01;9;7;
64114;PMS5003;62188;35.640;139.748;2023-11-19T09:29:26;9;8;
64114;PMS5003;62188;35.640;139.748;2023-11-19T09:31:51;9;7;
64114;PMS5003;62188;35.640;139.748;2023-11-19T09:34:17;5;5;
64114;PMS5003;62188;35.640;139.748;2023-11-19T09:36:43;8;6;
64114;PMS5003;62188;35.640;139.748;2023-11-19T09:39:08;7;6;
64114;PMS5003;62188;35.640;139.748;2023-11-19T09:41:33;6;6;
64114;PMS5003;62188;35.640;139.748;2023-11-19T09:43:59;6;6;
64114;PMS5003;62188;35.640;139.748;2023-11-19T09:46:25;7;7;
64114;PMS5003;62188;35.640;139.748;2023-11-19T09:48:51;7;7;
64114;PMS5003;62188;35.640;139.748;2023-11-19T09:51:16;7;7;
64114;PMS5003;62188;35.640;139.748;2023-11-19T09:53:41;5;5;
64114;PMS5003;62188;35.640;139.748;2023-11-19T09:56:06;5;5;
64114;PMS5003;62188;35.640;139.748;2023-11-19T09:58:32;7;6;
64114;PMS5003;62188;35.640;139.748;2023-11-19T10:00:58;5;5;
64114;PMS5003;62188;35.640;139.748;2023-11-19T10:03:23;6;5;
64114;PMS5003;62188;35.640;139.748;2023-11-19T10:05:48;5;5;
64114;PMS5003;62188;35.640;139.748;2023-11-19T10:08:14;5;5;
64114;PMS5003;62188;35.640;139.748;2023-11-19T10:10:39;4;4;
64114;PMS5003;62188;35.640;139.748;2023-11-19T10:13:05;4;4;
64114;PMS5003;62188;35.640;139.748;2023-11-19T10:15:32;6;5;
64114;PMS5003;62188;35.640;139.748;2023-11-19T10:17:56;3;3;
64114;PMS5003;62188;35.640;139.748;2023-11-19T10:20:21;3;3;
64114;PMS5003;62188;35.640;139.748;2023-11-19T10:22:47;6;6;
64114;PMS5003;62188;35.640;139.748;2023-11-19T10:25:23;6;6;
64114;PMS5003;62188;35.640;139.748;2023-11-19T10:27:38;6;6;
64114;PMS5003;62188;35.640;139.748;2023-11-19T10:30:03;8;7;
64114;PMS5003;62188;35.640;139.748;2023-11-19T10:32:28;8;8;
64114;PMS5003;62188;35.640;139.748;2023-11-19T10:39:53;9;7;
64114;PMS5003;62188;35.640;139.748;2023-11-19T10:42:15;12;11;
64114;PMS5003;62188;35.640;139.748;2023-11-19T10:44:36;7;7;
64114;PMS5003;62188;35.640;139.748;2023-11-19T10:47:01;9;7;
64114;PMS5003;62188;35.640;139.748;2023-11-19T10:49:27;9;8;
64114;PMS5003;62188;35.640;139.748;2023-11-19T10:51:52;20;20;
64114;PMS5003;62188;35.640;139.748;2023-11-19T10:54:18;24;23;
64114;PMS5003;62188;35.640;139.748;2023-11-19T10:56:44;10;10;
64114;PMS5003;62188;35.640;139.748;2023-11-19T10:59:09;9;8;
64114;PMS5003;62188;35.640;139.748;2023-11-19T11:01:37;11;11;
64114;PMS5003;62188;35.640;139.748;2023-11-19T11:04:00;7;7;
64114;PMS5003;62188;35.640;139.748;2023-11-19T11:06:26;10;10;
64114;PMS5003;62188;35.640;139.748;2023-11-19T11:08:51;16;16;
64114;PMS5003;62188;35.640;139.748;2023-11-19T11:11:17;14;13;
64114;PMS5003;62188;35.640;139.748;2023-11-19T11:13:43;12;12;
64114;PMS5003;62188;35.640;139.748;2023-11-19T11:16:08;10;10;
64114;PMS5003;62188;35.640;139.748;2023-11-19T11:18:33;10;9;
64114;PMS5003;62188;35.640;139.748;2023-11-19T11:21:00;13;11;
64114;PMS5003;62188;35.640;139.748;2023-11-19T11:23:29;10;10;
64114;PMS5003;62188;35.640;139.748;2023-11-19T11:25:51;10;8;
64114;PMS5003;62188;35.640;139.748;2023-11-19T11:28:20;9;8;
64114;PMS5003;62188;35.640;139.748;2023-11-19T11:30:46;16;14;
64114;PMS5003;62188;35.640;139.748;2023-11-19T11:33:17;13;12;
64114;PMS5003;62188;35.640;139.748;2023-11-19T11:35:33;9;9;
64114;PMS5003;62188;35.640;139.748;2023-11-19T11:38:00;9;9;
64114;PMS5003;62188;35.640;139.748;2023-11-19T11:40:23;9;7;
64114;PMS5003;62188;35.640;139.748;2023-11-19T11:42:49;8;8;
64114;PMS5003;62188;35.640;139.748;2023-11-19T11:45:14;10;10;
64114;PMS5003;62188;35.640;139.748;2023-11-19T11:50:05;9;8;
64114;PMS5003;62188;35.640;139.748;2023-11-19T11:52:30;9;9;
64114;PMS5003;62188;35.640;139.748;2023-11-19T11:54:56;9;8;
64114;PMS5003;62188;35.640;139.748;2023-11-19T11:57:21;9;9;
64114;PMS5003;62188;35.640;139.748;2023-11-19T11:59:47;9;8;
64114;PMS5003;62188;35.640;139.748;2023-11-19T12:02:13;12;12;
64114;PMS5003;62188;35.640;139.748;2023-11-19T12:04:38;10;9;
64114;PMS5003;62188;35.640;139.748;2023-11-19T12:07:04;13;12;
64114;PMS5003;62188;35.640;139.748;2023-11-19T12:09:29;11;11;
64114;PMS5003;62188;35.640;139.748;2023-11-19T12:16:45;14;13;
64114;PMS5003;62188;35.640;139.748;2023-11-19T12:19:10;14;14;
64114;PMS5003;62188;35.640;139.748;2023-11-19T12:21:36;12;11;
64114;PMS5003;62188;35.640;139.748;2023-11-19T12:24:02;9;9;
64114;PMS5003;62188;35.640;139.748;2023-11-19T12:26:32;10;10;
64114;PMS5003;62188;35.640;139.748;2023-11-19T12:31:19;15;13;
64114;PMS5003;62188;35.640;139.748;2023-11-19T12:33:44;11;11;
64114;PMS5003;62188;35.640;139.748;2023-11-19T12:36:09;11;11;
64114;PMS5003;62188;35.640;139.748;2023-11-19T12:38:34;13;11;
64114;PMS5003;62188;35.640;139.748;2023-11-19T12:41:03;11;9;
64114;PMS5003;62188;35.640;139.748;2023-11-19T12:43:26;11;9;
64114;PMS5003;62188;35.640;139.748;2023-11-19T12:45:51;11;11;
64114;PMS5003;62188;35.640;139.748;2023-11-19T12:48:17;12;12;
64114;PMS5003;62188;35.640;139.748;2023-11-19T12:50:51;14;13;
64114;PMS5003;62188;35.640;139.748;2023-11-19T12:53:09;11;11;
64114;PMS5003;62188;35.640;139.748;2023-11-19T12:55:33;10;9;
64114;PMS5003;62188;35.640;139.748;2023-11-19T12:57:59;11;11;
64114;PMS5003;62188;35.640;139.748;2023-11-19T13:00:25;11;10;
64114;PMS5003;62188;35.640;139.748;2023-11-19T13:02:50;11;10;
64114;PMS5003;62188;35.640;139.748;2023-11-19T13:07:41;11;11;
64114;PMS5003;62188;35.640;139.748;2023-11-19T13:10:07;14;12;
64114;PMS5003;62188;35.640;139.748;2023-11-19T13:12:32;11;10;
64114;PMS5003;62188;35.640;139.748;2023-11-19T13:14:58;9;9;
64114;PMS5003;62188;35.640;139.748;2023-11-19T13:17:23;12;11;
64114;PMS5003;62188;35.640;139.748;2023-11-19T13:19:49;9;8;
64114;PMS5003;62188;35.640;139.748;2023-11-19T13:22:14;11;9;
64114;PMS5003;62188;35.640;139.748;2023-11-19T13:24:40;8;8;
64114;PMS5003;62188;35.640;139.748;2023-11-19T13:27:05;11;10;
64114;PMS5003;62188;35.640;139.748;2023-11-19T13:29:30;11;10;
64114;PMS5003;62188;35.640;139.748;2023-11-19T13:31:56;10;8;
64114;PMS5003;62188;35.640;139.748;2023-11-19T13:34:22;10;9;
64114;PMS5003;62188;35.640;139.748;2023-11-19T13:36:47;12;12;
64114;PMS5003;62188;35.640;139.748;2023-11-19T13:39:13;10;10;
64114;PMS5003;62188;35.640;139.748;2023-11-19T13:41:38;13;12;
64114;PMS5003;62188;35.640;139.748;2023-11-19T13:44:04;16;15;
64114;PMS5003;62188;35.640;139.748;2023-11-19T13:46:29;15;14;
64114;PMS5003;62188;35.640;139.748;2023-11-19T13:48:55;15;13;
64114;PMS5003;62188;35.640;139.748;2023-11-19T13:51:21;15;14;
64114;PMS5003;62188;35.640;139.748;2023-11-19T13:53:46;10;10;
64114;PMS5003;62188;35.640;139.748;2023-11-19T13:56:11;15;14;
64114;PMS5003;62188;35.640;139.748;2023-11-19T13:58:36;14;14;
64114;PMS5003;62188;35.640;139.748;2023-11-19T14:01:02;16;15;
64114;PMS5003;62188;35.640;139.748;2023-11-19T14:03:27;15;14;
64114;PMS5003;62188;35.640;139.748;2023-11-19T14:05:52;16;15;
64114;PMS5003;62188;35.640;139.748;2023-11-19T14:08:18;11;11;
64114;PMS5003;62188;35.640;139.748;2023-11-19T14:10:43;13;13;
64114;PMS5003;62188;35.640;139.748;2023-11-19T14:13:09;13;12;
64114;PMS5003;62188;35.640;139.748;2023-11-19T14:15:35;15;12;
64114;PMS5003;62188;35.640;139.748;2023-11-19T14:18:00;12;12;
64114;PMS5003;62188;35.640;139.748;2023-11-19T14:20:25;12;12;
64114;PMS5003;62188;35.640;139.748;2023-11-19T14:22:51;10;8;
64114;PMS5003;62188;35.640;139.748;2023-11-19T14:25:17;11;11;
64114;PMS5003;62188;35.640;139.748;2023-11-19T14:27:43;10;10;
64114;PMS5003;62188;35.640;139.748;2023-11-19T14:30:08;12;10;
64114;PMS5003;62188;35.640;139.748;2023-11-19T14:32:34;9;9;
64114;PMS5003;62188;35.640;139.748;2023-11-19T14:34:58;10;10;
64114;PMS5003;62188;35.640;139.748;2023-11-19T14:37:24;9;9;
64114;PMS5003;62188;35.640;139.748;2023-11-19T14:39:50;12;12;
64114;PMS5003;62188;35.640;139.748;2023-11-19T14:42:15;12;12;
64114;PMS5003;62188;35.640;139.748;2023-11-19T14:44:41;10;10;
64114;PMS5003;62188;35.640;139.748;2023-11-19T14:47:07;14;13;
64114;PMS5003;62188;35.640;139.748;2023-11-19T14:49:32;13;12;
64114;PMS5003;62188;35.640;139.748;2023-11-19T14:51:57;11;11;
64114;PMS5003;62188;35.640;139.748;2023-11-19T14:54:23;13;12;
64114;PMS5003;62188;35.640;139.748;2023-11-19T14:56:49;12;10;
64114;PMS5003;62188;35.640;139.748;2023-11-19T14:59:14;12;11;
64114;PMS5003;62188;35.640;139.748;2023-11-19T15:01:40;11;11;
64114;PMS5003;62188;35.640;139.748;2023-11-19T15:04:05;13;12;
64114;PMS5003;62188;35.640;139.748;2023-11-19T15:06:31;11;10;
64114;PMS5003;62188;35.640;139.748;2023-11-19T15:08:56;13;12;
64114;PMS5003;62188;35.640;139.748;2023-11-19T15:11:21;13;12;
64114;PMS5003;62188;35.640;139.748;2023-11-19T15:13:47;12;10;
64114;PMS5003;62188;35.640;139.748;2023-11-19T15:16:13;11;11;
64114;PMS5003;62188;35.640;139.748;2023-11-19T15:18:38;9;9;
64114;PMS5003;62188;35.640;139.748;2023-11-19T15:21:04;10;10;
64114;PMS5003;62188;35.640;139.748;2023-11-19T15:23:29;10;10;
64114;PMS5003;62188;35.640;139.748;2023-11-19T15:25:55;14;13;
64114;PMS5003;62188;35.640;139.748;2023-11-19T15:28:21;11;11;
64114;PMS5003;62188;35.640;139.748;2023-11-19T15:30:46;12;12;
64114;PMS5003;62188;35.640;139.748;2023-11-19T15:33:12;12;11;
64114;PMS5003;62188;35.640;139.748;2023-11-19T15:35:37;12;12;
64114;PMS5003;62188;35.640;139.748;2023-11-19T15:38:02;13;13;
64114;PMS5003;62188;35.640;139.748;2023-11-19T15:40:28;13;13;
64114;PMS5003;62188;35.640;139.748;2023-11-19T15:42:54;14;13;
64114;PMS5003;62188;35.640;139.748;2023-11-19T15:45:19;11;11;
64114;PMS5003;62188;35.640;139.748;2023-11-19T15:47:45;16;14;
64114;PMS5003;62188;35.640;139.748;2023-11-19T15:50:10;12;12;
64114;PMS5003;62188;35.640;139.748;2023-11-19T15:52:36;12;11;
64114;PMS5003;62188;35.640;139.748;2023-11-19T15:55:01;12;11;
64114;PMS5003;62188;35.640;139.748;2023-11-19T15:57:27;15;15;
64114;PMS5003;62188;35.640;139.748;2023-11-19T15:59:53;11;9;
64114;PMS5003;62188;35.640;139.748;2023-11-19T16:02:18;14;13;
64114;PMS5003;62188;35.640;139.748;2023-11-19T16:04:44;13;13;
64114;PMS5003;62188;35.640;139.748;2023-11-19T16:07:09;15;14;
64114;PMS5003;62188;35.640;139.748;2023-11-19T16:09:35;16;15;
64114;PMS5003;62188;35.640;139.748;2023-11-19T16:12:00;13;13;
64114;PMS5003;62188;35.640;139.748;2023-11-19T16:14:26;17;15;